Time;durP1;ratioP1;P1;durP2;ratioP2;P2;SDS_P1;SDS_P2;PMS_P1;PMS_P2;Temp;Humidity;BMP_temperature;BMP_pressure;BME280_temperature;BME280_humidity;BME280_pressure;Samples;Min_cycle;Max_cycle;Signal;HPM_P1;HPM_P2
2024/01/23 00:01:10;;;;;;;0.40;0.40;;;;;;;5.00;100.00;99580.03;5040133;28;20161;-58
2024/01/23 00:03:37;;;;;;;0.60;0.60;;;;;;;4.91;100.00;99571.38;5039611;28;20394;-58
2024/01/23 00:06:04;;;;;;;0.50;0.50;;;;;;;4.96;100.00;99575.06;5042937;28;20131;-58
2024/01/23 00:08:32;;;;;;;0.38;0.38;;;;;;;4.97;100.00;99571.44;5043424;28;20044;-59
2024/01/23 00:10:59;;;;;;;0.40;0.40;;;;;;;4.92;100.00;99573.84;5044486;28;20045;-58
2024/01/23 00:13:26;;;;;;;0.50;0.50;;;;;;;4.87;100.00;99581.59;5037455;28;20395;-58
2024/01/23 00:15:53;;;;;;;0.45;0.45;;;;;;;4.91;100.00;99576.69;5041157;28;20056;-58
2024/01/23 00:18:23;;;;;;;0.40;0.40;;;;;;;4.83;100.00;99579.53;5036246;28;20454;-58
2024/01/23 00:20:50;;;;;;;0.43;0.43;;;;;;;4.95;100.00;99592.03;5044588;28;20056;-59
2024/01/23 00:23:18;;;;;;;0.47;0.47;;;;;;;4.93;100.00;99591.41;5034940;28;20048;-58
2024/01/23 00:25:45;;;;;;;0.50;0.50;;;;;;;4.81;100.00;99582.38;5039331;28;20067;-59
2024/01/23 00:28:13;;;;;;;0.50;0.50;;;;;;;4.96;100.00;99575.06;5041838;28;20076;-59
2024/01/23 00:30:43;;;;;;;0.50;0.50;;;;;;;4.97;100.00;99582.06;5040168;28;20053;-58
2024/01/23 00:33:10;;;;;;;0.50;0.50;;;;;;;4.94;100.00;99582.44;5039365;28;20155;-58
2024/01/23 00:35:39;;;;;;;0.50;0.50;;;;;;;5.01;100.00;99592.28;5021169;28;20049;-59
2024/01/23 00:38:06;;;;;;;0.40;0.40;;;;;;;4.96;100.00;99598.19;5041147;28;20151;-58
2024/01/23 00:40:33;;;;;;;0.50;0.50;;;;;;;5.21;100.00;99598.50;5041128;28;20059;-57
2024/01/23 00:43:01;;;;;;;0.40;0.40;;;;;;;5.25;100.00;99596.28;5040615;28;20415;-59
2024/01/23 00:45:28;;;;;;;0.50;0.50;;;;;;;5.29;100.00;99606.31;5036986;28;20404;-58
2024/01/23 00:47:55;;;;;;;0.38;0.38;;;;;;;5.36;100.00;99601.81;5036947;28;20055;-58
2024/01/23 00:50:22;;;;;;;0.40;0.40;;;;;;;5.26;100.00;99621.81;5038099;28;20130;-58
2024/01/23 00:52:51;;;;;;;0.40;0.40;;;;;;;5.13;100.00;99634.03;5023625;28;20123;-58
2024/01/23 00:55:18;;;;;;;0.40;0.40;;;;;;;5.19;100.00;99633.25;5040390;28;20184;-58
2024/01/23 00:57:45;;;;;;;0.50;0.50;;;;;;;5.11;100.00;99638.72;5042555;28;20041;-58
2024/01/23 01:00:14;;;;;;;0.50;0.50;;;;;;;5.14;100.00;99638.34;5036493;28;20037;-58
2024/01/23 01:02:41;;;;;;;0.40;0.40;;;;;;;5.23;100.00;99644.28;5021188;28;20133;-58
2024/01/23 01:05:08;;;;;;;0.50;0.50;;;;;;;5.29;100.00;99645.34;5037871;28;24533;-58
2024/01/23 01:07:35;;;;;;;0.50;0.50;;;;;;;5.22;100.00;99633.84;5020744;28;20060;-59
2024/01/23 01:10:05;;;;;;;0.50;0.50;;;;;;;5.22;100.00;99647.97;5037980;28;20080;-58
2024/01/23 01:12:33;;;;;;;0.30;0.30;;;;;;;5.37;100.00;99640.69;5040954;28;20102;-58
2024/01/23 01:15:01;;;;;;;0.40;0.40;;;;;;;5.34;100.00;99650.88;5040186;28;20435;-59
2024/01/23 01:17:28;;;;;;;0.40;0.40;;;;;;;5.37;100.00;99645.19;5041204;28;20052;-59
2024/01/23 01:19:56;;;;;;;0.43;0.43;;;;;;;5.35;100.00;99653.34;5038021;28;20063;-59
2024/01/23 01:22:24;;;;;;;0.40;0.40;;;;;;;5.29;100.00;99646.19;5040198;28;20512;-59
2024/01/23 01:24:52;;;;;;;0.40;0.40;;;;;;;5.28;100.00;99647.19;5040861;28;20041;-58
2024/01/23 01:27:24;;;;;;;0.40;0.40;;;;;;;5.23;100.00;99654.13;5040728;28;20056;-58
2024/01/23 01:29:51;;;;;;;0.40;0.40;;;;;;;5.24;100.00;99658.41;5040105;28;20048;-58
2024/01/23 01:32:19;;;;;;;0.55;0.55;;;;;;;5.24;100.00;99661.91;5040604;28;20052;-58
2024/01/23 01:34:46;;;;;;;0.50;0.50;;;;;;;5.07;100.00;99671.22;5040992;28;20033;-58
2024/01/23 01:37:13;;;;;;;0.40;0.40;;;;;;;5.07;100.00;99687.16;5043091;28;20037;-58
2024/01/23 01:39:40;;;;;;;0.47;0.47;;;;;;;4.96;100.00;99694.63;5043632;28;20128;-58
2024/01/23 01:42:07;;;;;;;0.40;0.40;;;;;;;4.90;100.00;99694.59;5040671;28;20033;-60
2024/01/23 01:44:36;;;;;;;0.47;0.47;;;;;;;4.76;100.00;99696.31;5039722;28;20075;-58
2024/01/23 01:47:03;;;;;;;0.50;0.50;;;;;;;4.75;100.00;99702.66;5042885;28;20044;-58
2024/01/23 01:49:31;;;;;;;0.57;0.57;;;;;;;4.65;100.00;99704.84;5039929;28;20040;-58
2024/01/23 01:52:00;;;;;;;0.50;0.50;;;;;;;4.47;100.00;99708.78;5041379;28;20135;-59
2024/01/23 01:54:27;;;;;;;0.47;0.47;;;;;;;4.73;100.00;99713.47;5043381;28;20052;-58
2024/01/23 01:56:54;;;;;;;0.50;0.50;;;;;;;4.90;100.00;99714.00;5026299;28;20045;-58
2024/01/23 01:59:24;;;;;;;0.32;0.32;;;;;;;4.76;100.00;99702.44;5042380;28;20395;-58
2024/01/23 02:01:52;;;;;;;0.43;0.43;;;;;;;4.68;100.00;99709.75;5045395;28;20049;-58
2024/01/23 02:04:20;;;;;;;0.40;0.40;;;;;;;4.72;100.00;99721.63;5044430;28;20107;-58
2024/01/23 02:06:47;;;;;;;0.50;0.50;;;;;;;4.73;100.00;99733.88;5028177;28;20491;-59
2024/01/23 02:09:14;;;;;;;0.40;0.40;;;;;;;4.70;100.00;99736.94;5023005;28;20056;-59
2024/01/23 02:11:55;;;;;;;0.50;0.50;;;;;;;4.66;100.00;99748.94;5043242;28;20578;-58
2024/01/23 02:14:26;;;;;;;0.43;0.43;;;;;;;4.61;100.00;99752.16;5042919;28;20380;-59
2024/01/23 02:16:55;;;;;;;0.40;0.40;;;;;;;4.55;100.00;99747.63;5042036;28;20268;-58
2024/01/23 02:19:26;;;;;;;0.40;0.40;;;;;;;4.47;100.00;99759.22;5026505;28;20041;-58
2024/01/23 02:21:56;;;;;;;0.50;0.50;;;;;;;4.44;100.00;99764.91;5037768;28;20064;-58
2024/01/23 02:24:25;;;;;;;0.60;0.60;;;;;;;4.49;100.00;99770.47;5040057;28;20041;-58
2024/01/23 02:26:52;;;;;;;0.50;0.50;;;;;;;4.51;100.00;99768.41;5036767;28;20044;-58
2024/01/23 02:29:19;;;;;;;0.50;0.50;;;;;;;4.49;100.00;99759.00;5041755;28;20507;-58
2024/01/23 02:31:46;;;;;;;0.45;0.45;;;;;;;4.48;100.00;99768.78;5044767;28;20052;-59
2024/01/23 02:34:14;;;;;;;0.57;0.57;;;;;;;4.55;100.00;99763.56;5038817;28;20045;-58
2024/01/23 02:36:42;;;;;;;0.40;0.40;;;;;;;4.62;100.00;99771.56;5027260;28;20032;-58
2024/01/23 02:39:11;;;;;;;0.40;0.40;;;;;;;4.65;100.00;99779.19;5041748;28;20102;-58
2024/01/23 02:41:40;;;;;;;0.50;0.50;;;;;;;4.61;100.00;99791.19;5034027;28;20049;-58
2024/01/23 02:44:10;;;;;;;0.40;0.40;;;;;;;4.58;100.00;99800.34;5040606;28;20302;-58
2024/01/23 02:46:39;;;;;;;;;;;;;;;4.52;100.00;99806.44;5044513;28;20517;-59
2024/01/23 02:49:06;;;;;;;0.50;0.50;;;;;;;4.39;100.00;99807.09;5029906;28;19925;-58
2024/01/23 02:51:33;;;;;;;0.50;0.50;;;;;;;4.38;100.00;99816.06;5041473;28;20051;-58
2024/01/23 02:54:00;;;;;;;0.40;0.40;;;;;;;4.42;100.00;99811.19;5042856;28;20044;-58
2024/01/23 02:56:30;;;;;;;0.40;0.40;;;;;;;4.45;100.00;99819.63;5023958;28;20813;-58
2024/01/23 02:59:01;;;;;;;0.50;0.50;;;;;;;4.50;100.00;99821.72;5037764;28;20055;-59
2024/01/23 03:01:28;;;;;;;0.47;0.47;;;;;;;4.46;100.00;99831.88;5038220;28;20045;-60
2024/01/23 03:03:55;;;;;;;0.50;0.50;;;;;;;4.40;100.00;99835.28;5036196;28;20041;-58
2024/01/23 03:06:26;;;;;;;0.50;0.50;;;;;;;4.30;100.00;99840.06;5043702;28;20106;-58
2024/01/23 03:08:53;;;;;;;0.50;0.50;;;;;;;4.27;100.00;99851.06;5040254;28;20084;-59
2024/01/23 03:11:20;;;;;;;0.55;0.55;;;;;;;4.22;100.00;99864.03;5023247;28;20495;-59
2024/01/23 03:13:47;;;;;;;0.50;0.50;;;;;;;4.20;100.00;99866.91;5042828;28;20115;-59
2024/01/23 03:16:16;;;;;;;0.60;0.60;;;;;;;4.41;100.00;99862.66;5019198;28;20500;-59
2024/01/23 03:18:44;;;;;;;0.50;0.50;;;;;;;4.71;100.00;99897.91;5042312;28;20358;-59
2024/01/23 03:21:11;;;;;;;0.45;0.45;;;;;;;4.38;100.00;99885.06;5038957;28;20060;-59
2024/01/23 03:23:39;;;;;;;0.60;0.60;;;;;;;4.35;100.00;99890.75;5002459;28;20053;-59
2024/01/23 03:26:06;;;;;;;0.50;0.50;;;;;;;4.23;100.00;99876.31;5039537;28;20041;-59
2024/01/23 03:28:36;;;;;;;0.50;0.50;;;;;;;4.25;100.00;99879.63;5015222;28;20080;-59
2024/01/23 03:31:03;;;;;;;0.55;0.55;;;;;;;4.08;100.00;99890.41;5042038;28;20460;-59
2024/01/23 03:33:32;;;;;;;0.45;0.45;;;;;;;4.03;100.00;99897.28;5042226;28;20055;-59
2024/01/23 03:35:59;;;;;;;0.50;0.50;;;;;;;3.99;100.00;99898.66;5022937;28;20164;-59
2024/01/23 03:38:26;;;;;;;0.50;0.50;;;;;;;3.92;100.00;99901.22;5036528;28;20037;-59
2024/01/23 03:40:53;;;;;;;0.40;0.40;;;;;;;4.03;100.00;99914.03;5037789;28;20049;-59
2024/01/23 03:43:20;;;;;;;0.50;0.50;;;;;;;3.96;100.00;99918.41;5041584;28;20045;-59
2024/01/23 03:45:47;;;;;;;0.43;0.43;;;;;;;3.88;100.00;99907.88;5012394;28;20072;-59
2024/01/23 03:48:18;;;;;;;0.50;0.50;;;;;;;3.92;100.00;99908.34;5041293;28;20047;-60
2024/01/23 03:50:47;;;;;;;0.40;0.40;;;;;;;3.83;100.00;99918.22;5040478;28;20041;-59
2024/01/23 03:53:14;;;;;;;0.40;0.40;;;;;;;3.68;100.00;99923.50;5040797;28;20069;-60
2024/01/23 03:55:41;;;;;;;0.60;0.60;;;;;;;3.45;100.00;99912.97;5041619;28;20056;-59
2024/01/23 03:58:08;;;;;;;0.47;0.47;;;;;;;3.27;100.00;99923.88;5034261;28;20136;-59
2024/01/23 04:00:37;;;;;;;0.50;0.50;;;;;;;3.37;100.00;99928.91;5039875;28;20053;-59
2024/01/23 04:03:05;;;;;;;0.60;0.60;;;;;;;3.42;100.00;99923.88;5043495;28;20044;-59
2024/01/23 04:05:32;;;;;;;0.60;0.60;;;;;;;3.42;100.00;99910.63;5041945;28;20055;-59
2024/01/23 04:08:00;;;;;;;0.50;0.50;;;;;;;3.42;100.00;99922.09;5039457;28;20075;-59
2024/01/23 04:10:27;;;;;;;0.50;0.50;;;;;;;3.42;100.00;99922.09;5041201;28;20098;-59
2024/01/23 04:12:55;;;;;;;0.57;0.57;;;;;;;3.46;100.00;99922.53;5042723;28;20515;-60
2024/01/23 04:15:22;;;;;;;0.60;0.60;;;;;;;3.39;100.00;99926.91;5037524;28;20099;-60
2024/01/23 04:17:49;;;;;;;0.57;0.57;;;;;;;3.43;100.00;99929.03;5040846;28;20407;-60
2024/01/23 04:20:17;;;;;;;0.52;0.52;;;;;;;3.41;100.00;99932.84;5037847;28;20040;-60
2024/01/23 04:22:44;;;;;;;0.60;0.60;;;;;;;3.43;100.00;99931.69;5013193;28;20055;-60
2024/01/23 04:25:13;;;;;;;0.50;0.50;;;;;;;3.52;100.00;99935.09;5018549;28;20305;-60
2024/01/23 04:27:40;;;;;;;0.60;0.60;;;;;;;3.67;100.00;99935.13;5042850;28;20455;-60
2024/01/23 04:30:08;;;;;;;0.63;0.63;;;;;;;3.62;100.00;99948.91;5039878;28;20044;-60
2024/01/23 04:32:38;;;;;;;0.60;0.60;;;;;;;3.64;100.00;99954.88;5040564;28;20041;-60
2024/01/23 04:35:08;;;;;;;0.52;0.52;;;;;;;3.79;100.00;99967.31;5042161;28;20403;-60
2024/01/23 04:37:35;;;;;;;0.57;0.57;;;;;;;3.65;100.00;99964.47;5018640;28;20041;-60
2024/01/23 04:40:03;;;;;;;0.60;0.60;;;;;;;3.70;100.00;99979.00;5037381;28;20431;-60
2024/01/23 04:42:32;;;;;;;0.50;0.50;;;;;;;3.64;100.00;99994.63;5040781;28;20156;-59
2024/01/23 04:44:59;;;;;;;0.50;0.50;;;;;;;3.67;100.00;100004.06;5038881;28;20067;-59
2024/01/23 04:47:27;;;;;;;0.60;0.60;;;;;;;3.67;100.00;100004.88;5042284;28;20045;-60
2024/01/23 04:49:56;;;;;;;0.55;0.55;;;;;;;3.60;100.00;100009.25;5041513;28;20168;-59
2024/01/23 04:52:24;;;;;;;0.40;0.40;;;;;;;3.58;100.00;100016.53;5038066;28;20045;-59
2024/01/23 04:54:51;;;;;;;0.50;0.50;;;;;;;3.49;100.00;100012.28;5035485;28;20048;-60
2024/01/23 04:57:19;;;;;;;0.50;0.50;;;;;;;3.63;100.00;100024.78;5039922;28;20037;-60
2024/01/23 04:59:48;;;;;;;0.52;0.52;;;;;;;3.56;100.00;100031.78;5039113;28;20053;-59
2024/01/23 05:02:15;;;;;;;0.55;0.55;;;;;;;3.58;100.00;100024.50;5019128;28;20515;-59
2024/01/23 05:04:44;;;;;;;0.50;0.50;;;;;;;3.54;100.00;100031.13;5041417;28;20037;-59
2024/01/23 05:07:11;;;;;;;0.57;0.57;;;;;;;3.44;100.00;100042.00;5038603;28;20041;-59
2024/01/23 05:09:42;;;;;;;0.60;0.60;;;;;;;3.39;100.00;100054.09;5022835;28;20468;-57
2024/01/23 05:12:12;;;;;;;0.55;0.55;;;;;;;3.43;100.00;100055.41;5038176;28;20049;-58
2024/01/23 05:14:42;;;;;;;0.50;0.50;;;;;;;3.37;100.00;100064.06;5035244;28;21077;-58
2024/01/23 05:17:11;;;;;;;0.52;0.52;;;;;;;3.29;100.00;100070.22;5038570;28;20511;-59
2024/01/23 05:19:38;;;;;;;0.60;0.60;;;;;;;3.30;100.00;100076.38;5041257;28;20115;-59
2024/01/23 05:22:05;;;;;;;0.50;0.50;;;;;;;3.31;100.00;100084.13;5042924;28;20491;-60
2024/01/23 05:24:35;;;;;;;0.50;0.50;;;;;;;3.16;100.00;100094.63;5039872;28;20048;-60
2024/01/23 05:27:02;;;;;;;0.57;0.57;;;;;;;3.08;100.00;100107.94;5042406;28;20052;-60
2024/01/23 05:29:32;;;;;;;0.50;0.50;;;;;;;3.07;100.00;100111.59;5030233;28;20057;-60
2024/01/23 05:31:59;;;;;;;0.50;0.50;;;;;;;3.08;100.00;100115.88;5017450;28;20694;-60
2024/01/23 05:34:28;;;;;;;0.50;0.50;;;;;;;3.07;100.00;100123.97;5023614;28;20037;-60
2024/01/23 05:36:55;;;;;;;0.50;0.50;;;;;;;3.09;100.00;100132.59;5044601;28;20086;-60
2024/01/23 05:39:22;;;;;;;0.52;0.52;;;;;;;3.16;100.00;100118.47;5037626;28;20040;-60
2024/01/23 05:41:53;;;;;;;0.50;0.50;;;;;;;3.23;100.00;100130.03;5043636;28;20048;-60
2024/01/23 05:44:21;;;;;;;0.55;0.55;;;;;;;3.17;100.00;100125.44;5043216;28;20806;-60
2024/01/23 05:46:48;;;;;;;0.60;0.60;;;;;;;3.33;100.00;100143.09;5044010;28;20063;-60
2024/01/23 05:49:16;;;;;;;0.50;0.50;;;;;;;3.34;100.00;100143.91;5044328;28;20052;-60
2024/01/23 05:51:45;;;;;;;0.57;0.57;;;;;;;3.42;100.00;100136.75;5043968;28;20044;-59
2024/01/23 05:54:13;;;;;;;0.50;0.50;;;;;;;3.38;100.00;100147.88;5037357;28;20049;-60
2024/01/23 05:56:40;;;;;;;0.60;0.60;;;;;;;3.38;100.00;100158.47;5046205;28;20438;-60
2024/01/23 05:59:07;;;;;;;0.50;0.50;;;;;;;3.41;100.00;100155.47;5047504;28;20468;-60
2024/01/23 06:01:34;;;;;;;0.50;0.50;;;;;;;3.54;100.00;100162.84;5045036;28;20052;-60
2024/01/23 06:04:02;;;;;;;0.52;0.52;;;;;;;3.48;100.00;100159.09;5044181;28;20098;-60
2024/01/23 06:06:29;;;;;;;0.50;0.50;;;;;;;3.41;100.00;100161.59;5042254;28;20388;-60
2024/01/23 06:08:57;;;;;;;0.52;0.52;;;;;;;3.41;100.00;100161.59;5042361;28;20146;-58
2024/01/23 06:11:27;;;;;;;0.50;0.50;;;;;;;3.35;100.00;100186.16;5041734;28;20053;-58
2024/01/23 06:13:54;;;;;;;0.57;0.57;;;;;;;3.48;100.00;100188.25;5040576;28;20052;-58
2024/01/23 06:16:21;;;;;;;0.52;0.52;;;;;;;3.44;100.00;100198.38;5039482;28;20503;-58
2024/01/23 06:18:48;;;;;;;0.70;0.70;;;;;;;3.43;100.00;100209.94;5025791;28;20411;-58
2024/01/23 06:21:15;;;;;;;0.60;0.60;;;;;;;3.43;100.00;100211.78;5041026;28;20045;-59
2024/01/23 06:23:43;;;;;;;0.50;0.50;;;;;;;3.45;100.00;100221.22;5044380;28;20399;-58
2024/01/23 06:26:12;;;;;;;0.52;0.52;;;;;;;3.38;100.00;100227.38;5039638;28;20045;-58
2024/01/23 06:28:39;;;;;;;0.50;0.50;;;;;;;3.26;100.00;100229.56;5038715;28;20481;-58
2024/01/23 06:31:06;;;;;;;0.50;0.50;;;;;;;3.11;100.00;100233.91;5043284;28;20049;-61
2024/01/23 06:33:33;;;;;;;0.70;0.70;;;;;;;2.85;100.00;100242.06;5041664;28;20392;-59
2024/01/23 06:36:01;;;;;;;0.60;0.60;;;;;;;2.96;100.00;100241.72;5044761;28;20052;-58
2024/01/23 06:38:28;;;;;;;0.50;0.50;;;;;;;2.93;100.00;100242.88;5019332;28;20063;-59
2024/01/23 06:40:55;;;;;;;0.60;0.60;;;;;;;2.85;100.00;100242.06;5042467;28;20717;-58
2024/01/23 06:43:26;;;;;;;0.60;0.60;;;;;;;2.62;100.00;100240.09;5041958;28;20048;-58
2024/01/23 06:45:52;;;;;;;;;;;;;;;2.64;100.00;100238.09;5042769;28;20057;-58
2024/01/23 06:48:20;;;;;;;0.50;0.50;;;;;;;2.68;100.00;100242.06;5044389;28;19967;-59
2024/01/23 06:50:47;;;;;;;0.73;0.73;;;;;;;2.56;100.00;100248.69;5028507;28;20072;-59
2024/01/23 06:53:14;;;;;;;0.50;0.50;;;;;;;2.40;100.00;100249.53;5043838;28;20087;-60
2024/01/23 06:55:42;;;;;;;0.60;0.60;;;;;;;2.40;100.00;100253.97;5025993;28;20045;-59
2024/01/23 06:58:09;;;;;;;0.63;0.63;;;;;;;2.38;100.00;100247.03;5023624;28;20096;-58
2024/01/23 07:00:37;;;;;;;0.60;0.60;;;;;;;2.41;100.00;100253.81;5040084;28;20130;-58
2024/01/23 07:03:06;;;;;;;0.60;0.60;;;;;;;2.31;100.00;100266.38;5043293;28;20045;-58
2024/01/23 07:05:34;;;;;;;0.68;0.68;;;;;;;2.30;100.00;100260.25;5043303;28;20071;-58
2024/01/23 07:08:01;;;;;;;0.60;0.60;;;;;;;2.43;100.00;100267.72;5043770;28;20056;-58
2024/01/23 07:10:28;;;;;;;0.55;0.55;;;;;;;2.28;100.00;100277.28;5041019;28;20033;-58
2024/01/23 07:12:56;;;;;;;0.75;0.75;;;;;;;2.29;100.00;100279.75;5042730;28;20037;-59
2024/01/23 07:15:23;;;;;;;0.70;0.70;;;;;;;2.35;100.00;100284.41;5040875;28;20126;-59
2024/01/23 07:17:53;;;;;;;0.60;0.60;;;;;;;2.33;100.00;100296.16;5044161;28;20397;-58
2024/01/23 07:20:20;;;;;;;0.70;0.70;;;;;;;2.36;100.00;100301.94;5040880;28;20048;-59
2024/01/23 07:22:50;;;;;;;;;;;;;;;2.44;100.00;100309.06;5042943;28;20053;-59
2024/01/23 07:25:20;;;;;;;0.60;0.60;;;;;;;2.42;100.00;100316.34;5042633;28;19924;-59
2024/01/23 07:27:48;;;;;;;0.70;0.70;;;;;;;2.34;100.00;100314.50;5042514;28;20503;-58
2024/01/23 07:30:19;;;;;;;0.60;0.60;;;;;;;2.23;100.00;100325.38;5039359;28;20052;-59
2024/01/23 07:32:46;;;;;;;0.50;0.50;;;;;;;2.23;100.00;100328.03;5011260;28;20488;-58
2024/01/23 07:35:16;;;;;;;0.52;0.52;;;;;;;2.23;100.00;100320.09;5039853;28;20411;-58
2024/01/23 07:37:44;;;;;;;0.52;0.52;;;;;;;2.27;100.00;100321.44;5042301;28;20126;-58
2024/01/23 07:40:11;;;;;;;0.70;0.70;;;;;;;2.32;100.00;100321.78;5041712;28;20320;-58
2024/01/23 07:42:38;;;;;;;0.68;0.68;;;;;;;2.31;100.00;100325.41;5040047;28;20049;-58
2024/01/23 07:45:06;;;;;;;0.80;0.80;;;;;;;2.27;100.00;100324.09;5022888;28;20060;-59
2024/01/23 07:47:34;;;;;;;0.50;0.50;;;;;;;2.39;100.00;100332.53;5036281;28;20867;-59
2024/01/23 07:50:01;;;;;;;0.70;0.70;;;;;;;2.39;100.00;100335.19;5038604;28;20520;-60
2024/01/23 07:52:31;;;;;;;0.70;0.70;;;;;;;2.51;100.00;100336.53;5024092;28;20064;-60
2024/01/23 07:54:58;;;;;;;0.70;0.70;;;;;;;2.57;100.00;100340.31;5041137;28;20373;-59
2024/01/23 07:57:27;;;;;;;0.65;0.65;;;;;;;2.62;100.00;100332.75;5038213;28;20041;-60
2024/01/23 07:59:54;;;;;;;0.70;0.70;;;;;;;2.76;100.00;100334.72;5038889;28;20060;-60
2024/01/23 08:02:21;;;;;;;0.60;0.60;;;;;;;3.10;100.00;100330.28;5035202;28;20084;-59
2024/01/23 08:04:49;;;;;;;0.52;0.52;;;;;;;3.30;100.00;100322.81;5032861;28;20071;-60
2024/01/23 08:07:19;;;;;;;0.60;0.60;;;;;;;3.29;100.00;100319.31;5038485;28;20046;-59
2024/01/23 08:09:48;;;;;;;0.60;0.60;;;;;;;3.48;100.00;100312.81;5041400;28;20048;-60
2024/01/23 08:12:15;;;;;;;0.40;0.40;;;;;;;3.64;100.00;100326.03;5040414;28;20072;-58
2024/01/23 08:14:43;;;;;;;0.52;0.52;;;;;;;3.56;100.00;100328.69;5037355;28;20462;-59
2024/01/23 08:17:11;;;;;;;0.60;0.60;;;;;;;3.12;100.00;100334.41;5041600;28;20144;-58
2024/01/23 08:19:40;;;;;;;0.60;0.60;;;;;;;3.05;100.00;100338.72;5038820;28;20037;-60
2024/01/23 08:22:07;;;;;;;0.50;0.50;;;;;;;3.21;100.00;100335.22;5039319;28;20446;-58
2024/01/23 08:24:34;;;;;;;0.55;0.55;;;;;;;3.53;100.00;100347.59;5040406;28;20124;-60
2024/01/23 08:27:03;;;;;;;0.60;0.60;;;;;;;3.76;100.00;100346.88;5042761;28;20053;-60
2024/01/23 08:29:30;;;;;;;0.50;0.50;;;;;;;3.81;100.00;100361.25;5039693;28;20551;-59
2024/01/23 08:31:57;;;;;;;0.50;0.50;;;;;;;3.67;100.00;100370.75;5023499;28;20131;-60
2024/01/23 08:34:25;;;;;;;0.60;0.60;;;;;;;3.74;100.00;100372.72;5040466;28;20041;-59
2024/01/23 08:36:52;;;;;;;0.52;0.52;;;;;;;3.80;100.00;100369.41;5039679;28;20068;-59
2024/01/23 08:39:22;;;;;;;0.70;0.70;;;;;;;4.38;100.00;100364.69;5037440;28;20047;-61
2024/01/23 08:41:52;;;;;;;0.50;0.50;;;;;;;4.42;100.00;100374.78;5019410;28;20037;-60
2024/01/23 08:44:21;;;;;;;0.70;0.70;;;;;;;4.87;100.00;100373.16;5037567;28;20052;-60
2024/01/23 08:46:48;;;;;;;0.70;0.70;;;;;;;4.65;100.00;100379.31;5038868;28;20043;-60
2024/01/23 08:49:16;;;;;;;0.50;0.50;;;;;;;5.11;100.00;100380.09;5041805;28;20188;-60
2024/01/23 08:51:46;;;;;;;;;;;;;;;5.60;100.00;100378.84;5038267;28;20056;-60
2024/01/23 08:54:19;;;;;;;0.60;0.60;;;;;;;6.04;98.17;100391.34;5038852;28;19927;-60
2024/01/23 08:56:46;;;;;;;0.50;0.50;;;;;;;6.21;95.93;100398.13;5037803;28;20042;-60
2024/01/23 08:59:14;;;;;;;0.55;0.55;;;;;;;6.28;94.83;100400.88;5039379;28;20077;-60
2024/01/23 09:01:43;;;;;;;0.50;0.50;;;;;;;6.42;94.93;100415.22;5040169;28;20171;-60
2024/01/23 09:04:10;;;;;;;0.45;0.45;;;;;;;6.31;94.27;100418.34;5039271;28;20091;-60
2024/01/23 09:06:37;;;;;;;0.47;0.47;;;;;;;6.59;94.02;100421.97;5047546;28;20501;-60
2024/01/23 09:09:08;;;;;;;0.40;0.40;;;;;;;6.79;92.35;100427.53;5040144;28;20060;-60
2024/01/23 09:11:35;;;;;;;0.50;0.50;;;;;;;6.77;90.23;100431.41;5020842;28;20044;-60
2024/01/23 09:14:02;;;;;;;0.50;0.50;;;;;;;7.04;89.99;100441.31;5039379;28;20357;-60
2024/01/23 09:16:30;;;;;;;0.50;0.50;;;;;;;7.17;90.32;100445.13;5038816;28;20245;-60
2024/01/23 09:18:58;;;;;;;0.40;0.40;;;;;;;7.03;88.26;100449.50;5041479;28;20114;-60
2024/01/23 09:21:28;;;;;;;0.47;0.47;;;;;;;7.34;87.39;100451.88;5039278;28;20122;-60
2024/01/23 09:23:55;;;;;;;0.50;0.50;;;;;;;7.38;87.33;100447.78;5025627;28;20045;-60
2024/01/23 09:26:23;;;;;;;0.40;0.40;;;;;;;7.77;87.27;100447.28;5041098;28;20056;-60
2024/01/23 09:28:51;;;;;;;0.50;0.50;;;;;;;7.13;89.35;100445.50;5041041;28;20132;-60
2024/01/23 09:31:18;;;;;;;0.47;0.47;;;;;;;7.67;88.21;100446.81;5040524;28;20519;-59
2024/01/23 09:33:45;;;;;;;0.40;0.40;;;;;;;7.79;84.85;100441.75;5039502;28;20052;-60
2024/01/23 09:36:14;;;;;;;0.40;0.40;;;;;;;8.08;84.44;100442.56;5042368;28;20041;-59
2024/01/23 09:38:41;;;;;;;0.43;0.43;;;;;;;7.71;83.85;100452.56;5038711;28;20630;-60
2024/01/23 09:41:11;;;;;;;0.47;0.47;;;;;;;7.92;83.92;100449.84;5034308;28;20067;-60
2024/01/23 09:43:39;;;;;;;0.40;0.40;;;;;;;8.29;82.60;100450.50;5036196;28;20597;-60
2024/01/23 09:46:06;;;;;;;0.40;0.40;;;;;;;8.23;83.02;100461.94;5037847;28;20063;-59
2024/01/23 09:48:33;;;;;;;0.40;0.40;;;;;;;8.78;80.17;100462.84;5040474;28;20049;-59
2024/01/23 09:51:01;;;;;;;0.30;0.30;;;;;;;7.85;83.44;100478.34;5015484;28;20065;-60
2024/01/23 09:53:29;;;;;;;0.40;0.40;;;;;;;8.42;82.31;100482.63;5041262;28;20033;-59
2024/01/23 09:55:57;;;;;;;0.40;0.40;;;;;;;8.24;83.21;100468.09;5023584;28;20103;-59
2024/01/23 09:58:24;;;;;;;0.32;0.32;;;;;;;8.45;82.30;100480.59;5022341;28;20052;-60
2024/01/23 10:00:58;;;;;;;;;;;;;;;8.55;82.09;100481.88;5040022;28;20521;-58
2024/01/23 10:03:28;;;;;;;0.30;0.30;;;;;;;8.88;80.16;100477.69;5037215;28;19963;-58
2024/01/23 10:05:55;;;;;;;0.32;0.32;;;;;;;9.07;77.38;100472.41;5036156;28;20041;-58
2024/01/23 10:08:25;;;;;;;0.30;0.30;;;;;;;9.13;76.19;100473.44;5033564;28;20052;-58
2024/01/23 10:10:59;;;;;;;0.40;0.40;;;;;;;8.13;81.35;100458.81;5035530;28;20681;-58
2024/01/23 10:13:26;;;;;;;0.40;0.40;;;;;;;8.43;80.97;100454.06;5037438;28;20045;-59
2024/01/23 10:15:54;;;;;;;0.40;0.40;;;;;;;8.58;81.34;100443.25;5039610;28;20048;-59
2024/01/23 10:18:22;;;;;;;0.22;0.22;;;;;;;8.72;80.32;100438.78;5043430;28;20049;-59
2024/01/23 10:20:51;;;;;;;0.25;0.25;;;;;;;8.72;81.82;100426.22;5042085;28;20108;-59
2024/01/23 10:23:20;;;;;;;0.50;0.50;;;;;;;8.92;78.98;100428.97;5043715;28;20104;-59
2024/01/23 10:25:48;;;;;;;0.40;0.40;;;;;;;8.65;81.06;100444.09;5041910;28;20045;-59
2024/01/23 10:28:17;;;;;;;0.50;0.50;;;;;;;8.17;83.22;100442.19;5025922;28;20057;-58
2024/01/23 10:30:45;;;;;;;0.33;0.33;;;;;;;8.34;81.95;100437.38;5043666;28;20053;-59
2024/01/23 10:33:12;;;;;;;0.40;0.40;;;;;;;8.94;81.10;100444.81;5043764;28;20665;-59
2024/01/23 10:35:39;;;;;;;0.40;0.40;;;;;;;9.11;79.51;100453.25;5022733;28;20661;-59
2024/01/23 10:38:06;;;;;;;0.30;0.30;;;;;;;9.04;79.22;100466.66;5041131;28;20041;-59
2024/01/23 10:40:34;;;;;;;0.30;0.30;;;;;;;9.62;76.39;100464.22;5005344;28;20136;-59
2024/01/23 10:43:01;;;;;;;0.30;0.30;;;;;;;8.81;77.28;100459.78;5024590;28;20538;-59
2024/01/23 10:45:29;;;;;;;0.40;0.40;;;;;;;8.84;78.92;100454.03;5041821;28;20090;-59
2024/01/23 10:47:59;;;;;;;0.40;0.40;;;;;;;9.05;77.65;100468.28;5043556;28;20052;-58
2024/01/23 10:50:33;;;;;;;0.32;0.32;;;;;;;8.49;79.96;100455.97;5038465;28;20033;-59
2024/01/23 10:53:04;;;;;;;0.30;0.30;;;;;;;9.01;78.40;100469.69;5043924;28;20044;-59
2024/01/23 10:55:32;;;;;;;0.40;0.40;;;;;;;9.35;75.26;100471.41;5041877;28;20045;-59
2024/01/23 10:58:02;;;;;;;0.30;0.30;;;;;;;9.40;74.52;100468.13;5043745;28;20045;-59
2024/01/23 11:00:30;;;;;;;0.30;0.30;;;;;;;9.10;74.96;100473.84;5043391;28;20140;-59
2024/01/23 11:02:59;;;;;;;0.30;0.30;;;;;;;9.37;74.70;100484.59;5024806;28;20041;-59
2024/01/23 11:05:30;;;;;;;0.30;0.30;;;;;;;9.29;73.95;100470.38;5042239;28;20126;-60
2024/01/23 11:07:58;;;;;;;0.30;0.30;;;;;;;8.94;73.55;100476.91;5043157;28;20059;-59
2024/01/23 11:10:28;;;;;;;0.40;0.40;;;;;;;9.10;73.92;100479.19;5042590;28;20051;-59
2024/01/23 11:13:01;;;;;;;0.30;0.30;;;;;;;9.37;73.59;100484.59;5044086;28;20056;-59
2024/01/23 11:15:30;;;;;;;0.30;0.30;;;;;;;8.96;73.55;100483.69;5042368;28;20294;-59
2024/01/23 11:18:16;;;;;;;0.30;0.30;;;;;;;9.31;71.63;100470.19;5046770;28;20083;-59
2024/01/23 11:20:43;;;;;;;0.40;0.40;;;;;;;9.02;73.01;100479.38;5038569;28;20053;-60
2024/01/23 11:23:13;;;;;;;0.20;0.20;;;;;;;8.88;73.82;100475.84;5042609;28;20503;-59
2024/01/23 11:25:42;;;;;;;0.30;0.30;;;;;;;9.00;73.24;100470.72;5040071;28;20045;-59
2024/01/23 11:28:09;;;;;;;0.30;0.30;;;;;;;8.87;74.16;100474.19;5041917;28;20049;-59
2024/01/23 11:30:41;;;;;;;0.30;0.30;;;;;;;8.87;76.69;100473.38;5018796;28;20052;-59
2024/01/23 11:33:22;;;;;;;0.30;0.30;;;;;;;8.68;78.64;100475.75;5043864;28;20452;-59
2024/01/23 11:36:04;;;;;;;;;;;;;;;8.36;80.98;100478.06;5040969;28;20052;-59